Terminal Aerodrome Forecast
Issued by NWS Cleveland, OH

Home | Current Version | Previous Version | Graphics & Text | Print | Product List | Glossary On
Versions: 1 2 3 4 5 6 7 8 9 10 11 12 13 14 15 16 17 18 19 20 21 22
000
FTUS41 KCLE 292341
TAFCLE
TAF
KCLE 292341Z 3000/3106 25008KT P6SM VCTS SCT050CB BKN250
      TEMPO 3000/3002 5SM -TSRA BKN050CB
     FM300200 27006KT P6SM OVC120
     FM301200 27012KT P6SM SKC
     FM301700 27012G20KT P6SM SKC
     FM302300 27012KT P6SM SKC=

USA.gov is the U.S. government's official web portal to all federal, state and local government web resources and services.